sensor_id;sensor_type;location;lat;lon;timestamp;pressure;altitude;pressure_sealevel;temperature
45393;BMP280;31129;44.810;10.334;2023-01-08T00:00:43;101202.09;;;10.10
45393;BMP280;31129;44.810;10.334;2023-01-08T00:03:08;101186.66;;;10.16
45393;BMP280;31129;44.810;10.334;2023-01-08T00:05:34;101180.44;;;10.16
45393;BMP280;31129;44.810;10.334;2023-01-08T00:08:00;101175.75;;;10.16
45393;BMP280;31129;44.810;10.334;2023-01-08T00:10:25;101177.28;;;10.17
45393;BMP280;31129;44.810;10.334;2023-01-08T00:12:51;101164.41;;;10.18
45393;BMP280;31129;44.810;10.334;2023-01-08T00:15:16;101164.44;;;10.27
45393;BMP280;31129;44.810;10.334;2023-01-08T00:17:42;101171.09;;;10.26
45393;BMP280;31129;44.810;10.334;2023-01-08T00:20:08;101165.22;;;10.27
45393;BMP280;31129;44.810;10.334;2023-01-08T00:22:33;101172.63;;;10.27
45393;BMP280;31129;44.810;10.334;2023-01-08T00:24:59;101183.13;;;10.47
45393;BMP280;31129;44.810;10.334;2023-01-08T00:27:24;101195.97;;;10.37
45393;BMP280;31129;44.810;10.334;2023-01-08T00:29:50;101176.97;;;10.24
45393;BMP280;31129;44.810;10.334;2023-01-08T00:32:15;101178.94;;;10.24
45393;BMP280;31129;44.810;10.334;2023-01-08T00:34:41;101173.34;;;10.18
45393;BMP280;31129;44.810;10.334;2023-01-08T00:37:06;101156.22;;;10.18
45393;BMP280;31129;44.810;10.334;2023-01-08T00:39:32;101154.69;;;10.17
45393;BMP280;31129;44.810;10.334;2023-01-08T00:41:57;101153.94;;;10.16
45393;BMP280;31129;44.810;10.334;2023-01-08T00:44:23;101176.13;;;10.27
45393;BMP280;31129;44.810;10.334;2023-01-08T00:46:48;101166.81;;;10.16
45393;BMP280;31129;44.810;10.334;2023-01-08T00:49:14;101177.78;;;10.25
45393;BMP280;31129;44.810;10.334;2023-01-08T00:51:41;101166.06;;;10.15
45393;BMP280;31129;44.810;10.334;2023-01-08T00:54:08;101155.75;;;10.10
45393;BMP280;31129;44.810;10.334;2023-01-08T00:56:33;101157.25;;;10.11
45393;BMP280;31129;44.810;10.334;2023-01-08T00:58:59;101146.56;;;10.26
45393;BMP280;31129;44.810;10.334;2023-01-08T01:01:24;101154.84;;;10.22
45393;BMP280;31129;44.810;10.334;2023-01-08T01:03:50;101150.59;;;10.12
45393;BMP280;31129;44.810;10.334;2023-01-08T01:06:15;101136.31;;;10.08
45393;BMP280;31129;44.810;10.334;2023-01-08T01:08:41;101133.19;;;10.19
45393;BMP280;31129;44.810;10.334;2023-01-08T01:11:10;101133.34;;;10.24
45393;BMP280;31129;44.810;10.334;2023-01-08T01:13:37;101140.19;;;10.29
45393;BMP280;31129;44.810;10.334;2023-01-08T01:16:03;101141.66;;;10.21
45393;BMP280;31129;44.810;10.334;2023-01-08T01:18:37;101137.19;;;10.27
45393;BMP280;31129;44.810;10.334;2023-01-08T01:21:09;101130.16;;;10.17
45393;BMP280;31129;44.810;10.334;2023-01-08T01:23:35;101122.44;;;10.15
45393;BMP280;31129;44.810;10.334;2023-01-08T01:26:01;101117.59;;;10.19
45393;BMP280;31129;44.810;10.334;2023-01-08T01:28:26;101118.53;;;10.25
45393;BMP280;31129;44.810;10.334;2023-01-08T01:30:53;101115.03;;;10.25
45393;BMP280;31129;44.810;10.334;2023-01-08T01:33:18;101111.69;;;10.30
45393;BMP280;31129;44.810;10.334;2023-01-08T01:35:44;101112.91;;;10.29
45393;BMP280;31129;44.810;10.334;2023-01-08T01:38:09;101105.31;;;10.24
45393;BMP280;31129;44.810;10.334;2023-01-08T01:40:41;101105.81;;;10.31
45393;BMP280;31129;44.810;10.334;2023-01-08T01:43:13;101084.88;;;10.19
45393;BMP280;31129;44.810;10.334;2023-01-08T01:45:39;101062.59;;;10.21
45393;BMP280;31129;44.810;10.334;2023-01-08T01:48:09;101068.34;;;10.14
45393;BMP280;31129;44.810;10.334;2023-01-08T01:50:43;101072.16;;;10.35
45393;BMP280;31129;44.810;10.334;2023-01-08T01:53:31;101064.31;;;10.27
45393;BMP280;31129;44.810;10.334;2023-01-08T01:55:59;101054.72;;;10.23
45393;BMP280;31129;44.810;10.334;2023-01-08T01:58:28;101053.19;;;10.22
45393;BMP280;31129;44.810;10.334;2023-01-08T02:00:56;101047.75;;;10.22
45393;BMP280;31129;44.810;10.334;2023-01-08T02:03:25;101034.75;;;10.26
45393;BMP280;31129;44.810;10.334;2023-01-08T02:06:15;101036.56;;;10.29
45393;BMP280;31129;44.810;10.334;2023-01-08T02:11:38;101033.97;;;10.16
45393;BMP280;31129;44.810;10.334;2023-01-08T02:14:12;101039.72;;;10.18
45393;BMP280;31129;44.810;10.334;2023-01-08T02:17:00;101032.59;;;10.21
45393;BMP280;31129;44.810;10.334;2023-01-08T02:19:42;101049.88;;;10.18
45393;BMP280;31129;44.810;10.334;2023-01-08T02:22:19;101046.09;;;10.24
45393;BMP280;31129;44.810;10.334;2023-01-08T02:27:40;101033.78;;;10.20
45393;BMP280;31129;44.810;10.334;2023-01-08T02:30:07;101034.31;;;10.27
45393;BMP280;31129;44.810;10.334;2023-01-08T02:32:36;101032.63;;;10.30
45393;BMP280;31129;44.810;10.334;2023-01-08T02:35:03;101035.63;;;10.23
45393;BMP280;31129;44.810;10.334;2023-01-08T02:37:29;101028.22;;;10.32
45393;BMP280;31129;44.810;10.334;2023-01-08T02:42:34;101029.72;;;10.24
45393;BMP280;31129;44.810;10.334;2023-01-08T02:47:49;101045.50;;;10.29
45393;BMP280;31129;44.810;10.334;2023-01-08T02:50:27;101040.47;;;10.28
45393;BMP280;31129;44.810;10.334;2023-01-08T02:53:18;101035.97;;;10.25
45393;BMP280;31129;44.810;10.334;2023-01-08T02:55:48;101040.97;;;10.26
45393;BMP280;31129;44.810;10.334;2023-01-08T02:58:17;101028.34;;;10.20
45393;BMP280;31129;44.810;10.334;2023-01-08T03:00:44;101052.16;;;10.28
45393;BMP280;31129;44.810;10.334;2023-01-08T03:03:28;101045.31;;;10.24
45393;BMP280;31129;44.810;10.334;2023-01-08T03:05:56;101044.59;;;10.32
45393;BMP280;31129;44.810;10.334;2023-01-08T03:08:22;101049.59;;;10.25
45393;BMP280;31129;44.810;10.334;2023-01-08T03:11:09;101037.44;;;10.17
45393;BMP280;31129;44.810;10.334;2023-01-08T03:14:06;101029.41;;;10.22
45393;BMP280;31129;44.810;10.334;2023-01-08T03:16:36;101027.88;;;10.21
45393;BMP280;31129;44.810;10.334;2023-01-08T03:19:24;101032.03;;;10.26
45393;BMP280;31129;44.810;10.334;2023-01-08T03:21:50;101026.22;;;10.24
45393;BMP280;31129;44.810;10.334;2023-01-08T03:24:22;101025.63;;;10.20
45393;BMP280;31129;44.810;10.334;2023-01-08T03:26:51;101024.41;;;10.21
45393;BMP280;31129;44.810;10.334;2023-01-08T03:29:19;101019.88;;;10.18
45393;BMP280;31129;44.810;10.334;2023-01-08T03:31:47;101027.16;;;10.30
45393;BMP280;31129;44.810;10.334;2023-01-08T03:34:14;101032.16;;;10.31
45393;BMP280;31129;44.810;10.334;2023-01-08T03:36:44;101018.38;;;10.26
45393;BMP280;31129;44.810;10.334;2023-01-08T03:39:22;101021.53;;;10.24
45393;BMP280;31129;44.810;10.334;2023-01-08T03:41:52;101025.19;;;10.30
45393;BMP280;31129;44.810;10.334;2023-01-08T03:44:18;101027.59;;;10.28
45393;BMP280;31129;44.810;10.334;2023-01-08T03:46:48;101015.34;;;10.33
45393;BMP280;31129;44.810;10.334;2023-01-08T03:49:16;101012.75;;;10.29
45393;BMP280;31129;44.810;10.334;2023-01-08T03:51:44;101018.19;;;10.20
45393;BMP280;31129;44.810;10.334;2023-01-08T03:54:13;101020.16;;;10.20
45393;BMP280;31129;44.810;10.334;2023-01-08T03:56:40;101027.44;;;10.23
45393;BMP280;31129;44.810;10.334;2023-01-08T03:59:05;101027.47;;;10.32
45393;BMP280;31129;44.810;10.334;2023-01-08T04:01:33;101019.25;;;10.23
45393;BMP280;31129;44.810;10.334;2023-01-08T04:03:59;101007.78;;;10.19
45393;BMP280;31129;44.810;10.334;2023-01-08T04:06:25;101003.38;;;10.30
45393;BMP280;31129;44.810;10.334;2023-01-08T04:08:50;100983.38;;;10.24
45393;BMP280;31129;44.810;10.334;2023-01-08T04:11:16;100990.78;;;10.24
45393;BMP280;31129;44.810;10.334;2023-01-08T04:13:41;100977.16;;;10.24
45393;BMP280;31129;44.810;10.334;2023-01-08T04:16:07;100974.88;;;10.22
45393;BMP280;31129;44.810;10.334;2023-01-08T04:18:33;100981.88;;;10.32
45393;BMP280;31129;44.810;10.334;2023-01-08T04:20:58;100969.72;;;10.24
45393;BMP280;31129;44.810;10.334;2023-01-08T04:23:24;100964.28;;;10.33
45393;BMP280;31129;44.810;10.334;2023-01-08T04:25:51;100948.06;;;10.30
45393;BMP280;31129;44.810;10.334;2023-01-08T04:28:16;100952.59;;;10.24
45393;BMP280;31129;44.810;10.334;2023-01-08T04:30:42;100938.22;;;10.23
45393;BMP280;31129;44.810;10.334;2023-01-08T04:33:07;100951.88;;;10.32
45393;BMP280;31129;44.810;10.334;2023-01-08T04:35:33;100948.53;;;10.28
45393;BMP280;31129;44.810;10.334;2023-01-08T04:37:58;100939.88;;;10.30
45393;BMP280;31129;44.810;10.334;2023-01-08T04:40:24;100939.72;;;10.24
45393;BMP280;31129;44.810;10.334;2023-01-08T04:42:49;100955.94;;;10.28
45393;BMP280;31129;44.810;10.334;2023-01-08T04:45:15;100943.66;;;10.23
45393;BMP280;31129;44.810;10.334;2023-01-08T04:47:41;100933.53;;;10.24
45393;BMP280;31129;44.810;10.334;2023-01-08T04:50:06;100922.31;;;10.13
45393;BMP280;31129;44.810;10.334;2023-01-08T04:52:32;100923.06;;;10.22
45393;BMP280;31129;44.810;10.334;2023-01-08T04:54:57;100919.00;;;10.18
45393;BMP280;31129;44.810;10.334;2023-01-08T04:57:23;100915.50;;;10.17
45393;BMP280;31129;44.810;10.334;2023-01-08T04:59:48;100917.19;;;10.15
45393;BMP280;31129;44.810;10.334;2023-01-08T05:02:14;100897.19;;;10.18
45393;BMP280;31129;44.810;10.334;2023-01-08T05:04:39;100885.97;;;10.07
45393;BMP280;31129;44.810;10.334;2023-01-08T05:07:05;100885.22;;;10.15
45393;BMP280;31129;44.810;10.334;2023-01-08T05:09:32;100875.06;;;10.16
45393;BMP280;31129;44.810;10.334;2023-01-08T05:11:57;100871.91;;;10.17
45393;BMP280;31129;44.810;10.334;2023-01-08T05:14:23;100867.31;;;10.23
45393;BMP280;31129;44.810;10.334;2023-01-08T05:16:48;100867.03;;;10.12
45393;BMP280;31129;44.810;10.334;2023-01-08T05:19:14;100874.16;;;10.19
45393;BMP280;31129;44.810;10.334;2023-01-08T05:21:40;100873.41;;;10.18
45393;BMP280;31129;44.810;10.334;2023-01-08T05:24:05;100874.00;;;10.13
45393;BMP280;31129;44.810;10.334;2023-01-08T05:26:31;100867.53;;;10.11
45393;BMP280;31129;44.810;10.334;2023-01-08T05:28:56;100891.13;;;10.14
45393;BMP280;31129;44.810;10.334;2023-01-08T05:31:22;100880.97;;;10.14
45393;BMP280;31129;44.810;10.334;2023-01-08T05:33:48;100878.72;;;10.13
45393;BMP280;31129;44.810;10.334;2023-01-08T05:36:13;100871.59;;;10.15
45393;BMP280;31129;44.810;10.334;2023-01-08T05:38:39;100865.06;;;10.13
45393;BMP280;31129;44.810;10.334;2023-01-08T05:41:06;100880.38;;;10.19
45393;BMP280;31129;44.810;10.334;2023-01-08T05:43:32;100893.84;;;10.14
45393;BMP280;31129;44.810;10.334;2023-01-08T05:45:59;100895.66;;;10.17
45393;BMP280;31129;44.810;10.334;2023-01-08T05:48:26;100882.19;;;10.13
45393;BMP280;31129;44.810;10.334;2023-01-08T05:50:51;100867.94;;;10.18
45393;BMP280;31129;44.810;10.334;2023-01-08T05:53:17;100871.28;;;10.13
45393;BMP280;31129;44.810;10.334;2023-01-08T05:55:43;100884.31;;;10.18
45393;BMP280;31129;44.810;10.334;2023-01-08T05:58:08;100881.72;;;10.15
45393;BMP280;31129;44.810;10.334;2023-01-08T06:00:35;100873.84;;;10.26
45393;BMP280;31129;44.810;10.334;2023-01-08T06:03:01;100880.97;;;10.14
45393;BMP280;31129;44.810;10.334;2023-01-08T06:05:27;100882.03;;;10.08
45393;BMP280;31129;44.810;10.334;2023-01-08T06:07:52;100885.66;;;10.14
45393;BMP280;31129;44.810;10.334;2023-01-08T06:10:18;100880.66;;;10.12
45393;BMP280;31129;44.810;10.334;2023-01-08T06:12:43;100885.97;;;10.16
45393;BMP280;31129;44.810;10.334;2023-01-08T06:15:09;100881.72;;;10.15
45393;BMP280;31129;44.810;10.334;2023-01-08T06:17:36;100884.75;;;10.17
45393;BMP280;31129;44.810;10.334;2023-01-08T06:20:02;100874.63;;;10.17
45393;BMP280;31129;44.810;10.334;2023-01-08T06:22:27;100878.38;;;10.20
45393;BMP280;31129;44.810;10.334;2023-01-08T06:24:53;100876.28;;;10.15
45393;BMP280;31129;44.810;10.334;2023-01-08T06:27:18;100868.09;;;10.15
45393;BMP280;31129;44.810;10.334;2023-01-08T06:29:44;100869.50;;;10.10
45393;BMP280;31129;44.810;10.334;2023-01-08T06:32:09;100871.91;;;10.17
45393;BMP280;31129;44.810;10.334;2023-01-08T06:34:35;100869.47;;;10.19
45393;BMP280;31129;44.810;10.334;2023-01-08T06:37:00;100862.66;;;10.15
45393;BMP280;31129;44.810;10.334;2023-01-08T06:39:26;100856.56;;;10.20
45393;BMP280;31129;44.810;10.334;2023-01-08T06:41:52;100858.72;;;10.16
45393;BMP280;31129;44.810;10.334;2023-01-08T06:44:17;100858.09;;;10.12
45393;BMP280;31129;44.810;10.334;2023-01-08T06:46:43;100870.81;;;10.15
45393;BMP280;31129;44.810;10.334;2023-01-08T06:49:09;100860.19;;;10.35
45393;BMP280;31129;44.810;10.334;2023-01-08T06:51:34;100866.25;;;10.30
45393;BMP280;31129;44.810;10.334;2023-01-08T06:54:00;100873.09;;;10.16
45393;BMP280;31129;44.810;10.334;2023-01-08T06:56:26;100885.22;;;10.06
45393;BMP280;31129;44.810;10.334;2023-01-08T06:58:51;100867.66;;;10.07
45393;BMP280;31129;44.810;10.334;2023-01-08T07:01:17;100871.16;;;9.98
45393;BMP280;31129;44.810;10.334;2023-01-08T07:03:43;100858.72;;;10.07
45393;BMP280;31129;44.810;10.334;2023-01-08T07:06:14;100848.09;;;10.09
45393;BMP280;31129;44.810;10.334;2023-01-08T07:08:40;100857.16;;;10.24
45393;BMP280;31129;44.810;10.334;2023-01-08T07:11:05;100854.47;;;10.06
45393;BMP280;31129;44.810;10.334;2023-01-08T07:13:31;100835.72;;;9.98
45393;BMP280;31129;44.810;10.334;2023-01-08T07:15:56;100834.31;;;10.03
45393;BMP280;31129;44.810;10.334;2023-01-08T07:18:22;100852.53;;;9.97
45393;BMP280;31129;44.810;10.334;2023-01-08T07:20:47;100850.66;;;9.94
45393;BMP280;31129;44.810;10.334;2023-01-08T07:23:13;100864.91;;;10.07
45393;BMP280;31129;44.810;10.334;2023-01-08T07:25:39;100871.00;;;10.02
45393;BMP280;31129;44.810;10.334;2023-01-08T07:28:05;100853.88;;;9.92
45393;BMP280;31129;44.810;10.334;2023-01-08T07:30:30;100844.78;;;9.95
45393;BMP280;31129;44.810;10.334;2023-01-08T07:33:02;100842.38;;;9.97
45393;BMP280;31129;44.810;10.334;2023-01-08T07:35:27;100859.03;;;10.00
45393;BMP280;31129;44.810;10.334;2023-01-08T07:37:53;100850.84;;;10.18
45393;BMP280;31129;44.810;10.334;2023-01-08T07:40:19;100859.91;;;10.06
45393;BMP280;31129;44.810;10.334;2023-01-08T07:42:44;100854.19;;;9.94
45393;BMP280;31129;44.810;10.334;2023-01-08T07:45:10;100851.00;;;9.96
45393;BMP280;31129;44.810;10.334;2023-01-08T07:47:35;100847.94;;;9.94
45393;BMP280;31129;44.810;10.334;2023-01-08T07:50:01;100841.31;;;9.95
45393;BMP280;31129;44.810;10.334;2023-01-08T07:52:27;100833.13;;;9.95
45393;BMP280;31129;44.810;10.334;2023-01-08T07:54:52;100816.03;;;9.94
45393;BMP280;31129;44.810;10.334;2023-01-08T07:57:18;100810.56;;;9.85
45393;BMP280;31129;44.810;10.334;2023-01-08T07:59:43;100810.53;;;10.04
45393;BMP280;31129;44.810;10.334;2023-01-08T08:02:12;100813.00;;;9.92
45393;BMP280;31129;44.810;10.334;2023-01-08T08:04:38;100812.69;;;9.90
45393;BMP280;31129;44.810;10.334;2023-01-08T08:07:03;100806.78;;;9.92
45393;BMP280;31129;44.810;10.334;2023-01-08T08:09:29;100809.78;;;9.94
45393;BMP280;31129;44.810;10.334;2023-01-08T08:11:54;100808.47;;;9.89
45393;BMP280;31129;44.810;10.334;2023-01-08T08:14:20;100819.47;;;10.04
45393;BMP280;31129;44.810;10.334;2023-01-08T08:16:45;100824.03;;;10.07
45393;BMP280;31129;44.810;10.334;2023-01-08T08:19:11;100821.75;;;10.06
45393;BMP280;31129;44.810;10.334;2023-01-08T08:21:37;100828.75;;;9.88
45393;BMP280;31129;44.810;10.334;2023-01-08T08:24:03;100821.03;;;9.96
45393;BMP280;31129;44.810;10.334;2023-01-08T08:26:29;100823.31;;;9.97
45393;BMP280;31129;44.810;10.334;2023-01-08T08:28:54;100810.72;;;10.00
45393;BMP280;31129;44.810;10.334;2023-01-08T08:31:21;100811.59;;;10.06
45393;BMP280;31129;44.810;10.334;2023-01-08T08:33:46;100816.94;;;10.01
45393;BMP280;31129;44.810;10.334;2023-01-08T08:36:12;100814.66;;;9.99
45393;BMP280;31129;44.810;10.334;2023-01-08T08:38:38;100816.78;;;9.95
45393;BMP280;31129;44.810;10.334;2023-01-08T08:41:04;100816.75;;;10.04
45393;BMP280;31129;44.810;10.334;2023-01-08T08:43:30;100816.50;;;10.02
45393;BMP280;31129;44.810;10.334;2023-01-08T08:45:56;100811.50;;;10.01
45393;BMP280;31129;44.810;10.334;2023-01-08T08:48:22;100813.13;;;10.07
45393;BMP280;31129;44.810;10.334;2023-01-08T08:50:47;100806.47;;;10.08
45393;BMP280;31129;44.810;10.334;2023-01-08T08:53:13;100806.59;;;10.14
45393;BMP280;31129;44.810;10.334;2023-01-08T08:55:39;100805.41;;;10.06
45393;BMP280;31129;44.810;10.334;2023-01-08T08:58:10;100797.84;;;10.10
45393;BMP280;31129;44.810;10.334;2023-01-08T09:00:37;100796.91;;;10.13
45393;BMP280;31129;44.810;10.334;2023-01-08T09:03:03;100787.72;;;10.10
45393;BMP280;31129;44.810;10.334;2023-01-08T09:05:29;100786.78;;;10.13
45393;BMP280;31129;44.810;10.334;2023-01-08T09:07:55;100784.66;;;10.17
45393;BMP280;31129;44.810;10.334;2023-01-08T09:10:21;100778.72;;;10.19
45393;BMP280;31129;44.810;10.334;2023-01-08T09:12:47;100780.09;;;10.14
45393;BMP280;31129;44.810;10.334;2023-01-08T09:15:13;100768.16;;;10.03
45393;BMP280;31129;44.810;10.334;2023-01-08T09:17:38;100765.56;;;10.08
45393;BMP280;31129;44.810;10.334;2023-01-08T09:20:04;100774.50;;;10.09
45393;BMP280;31129;44.810;10.334;2023-01-08T09:22:30;100779.03;;;10.12
45393;BMP280;31129;44.810;10.334;2023-01-08T09:24:56;100776.47;;;10.08
45393;BMP280;31129;44.810;10.334;2023-01-08T09:27:21;100778.44;;;10.08
45393;BMP280;31129;44.810;10.334;2023-01-08T09:29:47;100774.97;;;10.07
45393;BMP280;31129;44.810;10.334;2023-01-08T09:32:12;100768.34;;;9.99
45393;BMP280;31129;44.810;10.334;2023-01-08T09:34:38;100761.34;;;10.07
45393;BMP280;31129;44.810;10.334;2023-01-08T09:37:04;100760.22;;;10.23
45393;BMP280;31129;44.810;10.334;2023-01-08T09:39:30;100743.94;;;10.71
45393;BMP280;31129;44.810;10.334;2023-01-08T09:41:58;100752.09;;;10.47
45393;BMP280;31129;44.810;10.334;2023-01-08T09:44:27;100757.47;;;10.32
45393;BMP280;31129;44.810;10.334;2023-01-08T09:46:54;100767.94;;;10.33
45393;BMP280;31129;44.810;10.334;2023-01-08T09:49:29;100757.03;;;10.24
45393;BMP280;31129;44.810;10.334;2023-01-08T09:51:58;100764.03;;;10.25
45393;BMP280;31129;44.810;10.334;2023-01-08T09:54:25;100759.66;;;10.19
45393;BMP280;31129;44.810;10.334;2023-01-08T09:56:51;100764.03;;;10.25
45393;BMP280;31129;44.810;10.334;2023-01-08T09:59:17;100760.38;;;10.28
45393;BMP280;31129;44.810;10.334;2023-01-08T10:01:44;100753.53;;;10.33
45393;BMP280;31129;44.810;10.334;2023-01-08T10:06:40;100721.09;;;10.44
45393;BMP280;31129;44.810;10.334;2023-01-08T10:09:08;100722.00;;;10.41
45393;BMP280;31129;44.810;10.334;2023-01-08T10:11:42;100730.94;;;10.42
45393;BMP280;31129;44.810;10.334;2023-01-08T10:14:27;100726.03;;;10.46
45393;BMP280;31129;44.810;10.334;2023-01-08T10:17:00;100728.28;;;10.56
45393;BMP280;31129;44.810;10.334;2023-01-08T10:19:27;100723.06;;;10.67
45393;BMP280;31129;44.810;10.334;2023-01-08T10:21:52;100718.53;;;10.64
45393;BMP280;31129;44.810;10.334;2023-01-08T10:24:36;100718.22;;;10.62
45393;BMP280;31129;44.810;10.334;2023-01-08T10:27:10;100706.50;;;10.47
45393;BMP280;31129;44.810;10.334;2023-01-08T10:29:36;100715.72;;;10.50
45393;BMP280;31129;44.810;10.334;2023-01-08T10:32:13;100720.78;;;10.42
45393;BMP280;31129;44.810;10.334;2023-01-08T10:34:46;100720.41;;;10.25
45393;BMP280;31129;44.810;10.334;2023-01-08T10:37:37;100708.28;;;10.26
45393;BMP280;31129;44.810;10.334;2023-01-08T10:40:25;100707.19;;;10.33
45393;BMP280;31129;44.810;10.334;2023-01-08T10:42:51;100703.09;;;10.28
45393;BMP280;31129;44.810;10.334;2023-01-08T10:45:20;100702.19;;;10.31
45393;BMP280;31129;44.810;10.334;2023-01-08T10:47:53;100700.59;;;10.40
45393;BMP280;31129;44.810;10.334;2023-01-08T10:50:26;100704.03;;;10.25
45393;BMP280;31129;44.810;10.334;2023-01-08T10:52:55;100701.13;;;10.29
45393;BMP280;31129;44.810;10.334;2023-01-08T10:55:27;100674.19;;;10.22
45393;BMP280;31129;44.810;10.334;2023-01-08T10:58:23;100679.81;;;10.27
45393;BMP280;31129;44.810;10.334;2023-01-08T11:00:49;100674.91;;;10.31
45393;BMP280;31129;44.810;10.334;2023-01-08T11:03:29;100664.03;;;10.22
45393;BMP280;31129;44.810;10.334;2023-01-08T11:05:55;100659.97;;;10.27
45393;BMP280;31129;44.810;10.334;2023-01-08T11:08:21;100653.00;;;10.26
45393;BMP280;31129;44.810;10.334;2023-01-08T11:10:58;100653.25;;;10.28
45393;BMP280;31129;44.810;10.334;2023-01-08T11:13:25;100660.34;;;10.35
45393;BMP280;31129;44.810;10.334;2023-01-08T11:18:28;100637.97;;;10.21
45393;BMP280;31129;44.810;10.334;2023-01-08T11:21:08;100639.16;;;10.29
45393;BMP280;31129;44.810;10.334;2023-01-08T11:23:39;100631.28;;;10.31
45393;BMP280;31129;44.810;10.334;2023-01-08T11:26:31;100636.31;;;10.24
45393;BMP280;31129;44.810;10.334;2023-01-08T11:31:40;100623.75;;;10.26
45393;BMP280;31129;44.810;10.334;2023-01-08T11:34:21;100602.22;;;10.28
45393;BMP280;31129;44.810;10.334;2023-01-08T11:36:53;100594.31;;;10.30
45393;BMP280;31129;44.810;10.334;2023-01-08T11:39:21;100601.03;;;10.20
45393;BMP280;31129;44.810;10.334;2023-01-08T11:44:22;100580.28;;;10.23
45393;BMP280;31129;44.810;10.334;2023-01-08T11:52:22;100583.41;;;10.30
45393;BMP280;31129;44.810;10.334;2023-01-08T11:55:15;100588.56;;;10.28
45393;BMP280;31129;44.810;10.334;2023-01-08T12:03:01;100583.25;;;10.34
45393;BMP280;31129;44.810;10.334;2023-01-08T12:34:52;100528.66;;;10.19
45393;BMP280;31129;44.810;10.334;2023-01-08T12:40:39;100529.16;;;10.71
45393;BMP280;31129;44.810;10.334;2023-01-08T12:43:11;100509.59;;;10.87
45393;BMP280;31129;44.810;10.334;2023-01-08T12:45:42;100524.13;;;10.69
45393;BMP280;31129;44.810;10.334;2023-01-08T12:48:20;100522.44;;;10.43
45393;BMP280;31129;44.810;10.334;2023-01-08T12:55:57;100518.66;;;10.40
45393;BMP280;31129;44.810;10.334;2023-01-08T12:58:52;100509.66;;;10.63
45393;BMP280;31129;44.810;10.334;2023-01-08T13:01:35;100530.63;;;10.43
45393;BMP280;31129;44.810;10.334;2023-01-08T13:04:08;100527.47;;;10.35
45393;BMP280;31129;44.810;10.334;2023-01-08T13:06:34;100526.41;;;10.18
45393;BMP280;31129;44.810;10.334;2023-01-08T13:09:01;100535.03;;;10.16
45393;BMP280;31129;44.810;10.334;2023-01-08T13:11:34;100527.16;;;10.18
45393;BMP280;31129;44.810;10.334;2023-01-08T13:14:07;100522.03;;;10.11
45393;BMP280;31129;44.810;10.334;2023-01-08T13:16:40;100534.53;;;9.94
45393;BMP280;31129;44.810;10.334;2023-01-08T13:19:39;100528.19;;;9.97
45393;BMP280;31129;44.810;10.334;2023-01-08T13:24:46;100515.19;;;9.92
45393;BMP280;31129;44.810;10.334;2023-01-08T13:29:48;100483.59;;;9.85
45393;BMP280;31129;44.810;10.334;2023-01-08T13:32:39;100478.16;;;9.85
45393;BMP280;31129;44.810;10.334;2023-01-08T13:37:48;100431.72;;;9.80
45393;BMP280;31129;44.810;10.334;2023-01-08T13:40:54;100423.66;;;9.85
45393;BMP280;31129;44.810;10.334;2023-01-08T13:43:29;100441.03;;;9.88
45393;BMP280;31129;44.810;10.334;2023-01-08T13:48:26;100444.53;;;9.88
45393;BMP280;31129;44.810;10.334;2023-01-08T13:50:52;100430.75;;;10.07
45393;BMP280;31129;44.810;10.334;2023-01-08T13:53:18;100434.50;;;9.94
45393;BMP280;31129;44.810;10.334;2023-01-08T13:56:00;100432.22;;;9.93
45393;BMP280;31129;44.810;10.334;2023-01-08T13:58:30;100435.41;;;9.91
45393;BMP280;31129;44.810;10.334;2023-01-08T14:00:56;100442.09;;;9.90
45393;BMP280;31129;44.810;10.334;2023-01-08T14:03:26;100444.53;;;9.88
45393;BMP280;31129;44.810;10.334;2023-01-08T14:06:25;100438.38;;;9.79
45393;BMP280;31129;44.810;10.334;2023-01-08T14:09:00;100436.34;;;9.88
45393;BMP280;31129;44.810;10.334;2023-01-08T14:11:37;100444.72;;;9.85
45393;BMP280;31129;44.810;10.334;2023-01-08T14:14:13;100441.41;;;9.81
45393;BMP280;31129;44.810;10.334;2023-01-08T14:16:39;100438.16;;;9.91
45393;BMP280;31129;44.810;10.334;2023-01-08T14:19:20;100443.31;;;9.89
45393;BMP280;31129;44.810;10.334;2023-01-08T14:21:48;100447.34;;;9.94
45393;BMP280;31129;44.810;10.334;2023-01-08T14:24:15;100436.28;;;9.97
45393;BMP280;31129;44.810;10.334;2023-01-08T14:26:41;100425.75;;;9.90
45393;BMP280;31129;44.810;10.334;2023-01-08T14:29:15;100426.78;;;9.93
45393;BMP280;31129;44.810;10.334;2023-01-08T14:31:48;100428.44;;;9.76
45393;BMP280;31129;44.810;10.334;2023-01-08T14:34:16;100434.78;;;9.73
45393;BMP280;31129;44.810;10.334;2023-01-08T14:36:43;100434.13;;;9.78
45393;BMP280;31129;44.810;10.334;2023-01-08T14:39:22;100428.63;;;9.63
45393;BMP280;31129;44.810;10.334;2023-01-08T14:41:49;100428.19;;;9.65
45393;BMP280;31129;44.810;10.334;2023-01-08T14:44:34;100439.19;;;9.70
45393;BMP280;31129;44.810;10.334;2023-01-08T14:47:00;100430.66;;;9.77
45393;BMP280;31129;44.810;10.334;2023-01-08T14:49:28;100421.25;;;9.78
45393;BMP280;31129;44.810;10.334;2023-01-08T14:51:56;100408.38;;;9.64
45393;BMP280;31129;44.810;10.334;2023-01-08T14:54:29;100400.78;;;9.68
45393;BMP280;31129;44.810;10.334;2023-01-08T14:56:56;100407.22;;;9.56
45393;BMP280;31129;44.810;10.334;2023-01-08T14:59:29;100407.44;;;9.67
45393;BMP280;31129;44.810;10.334;2023-01-08T15:01:58;100399.75;;;9.66
45393;BMP280;31129;44.810;10.334;2023-01-08T15:04:26;100402.75;;;9.68
45393;BMP280;31129;44.810;10.334;2023-01-08T15:07:05;100406.97;;;9.69
45393;BMP280;31129;44.810;10.334;2023-01-08T15:09:32;100401.25;;;9.67
45393;BMP280;31129;44.810;10.334;2023-01-08T15:12:04;100400.31;;;9.70
45393;BMP280;31129;44.810;10.334;2023-01-08T15:14:30;100394.97;;;9.75
45393;BMP280;31129;44.810;10.334;2023-01-08T15:17:03;100395.09;;;9.81